Time;durP1;ratioP1;P1;durP2;ratioP2;P2;SDS_P1;SDS_P2;PMS_P1;PMS_P2;Temp;Humidity;BMP_temperature;BMP_pressure;BME280_temperature;BME280_humidity;BME280_pressure;Samples;Min_cycle;Max_cycle;Signal;HPM_P1;HPM_P2
2022/05/04 00:02:00;;;;;;;6.57;2.60;;;4.30;93.10;;;;;;5073687;28;20221;-79
2022/05/04 00:04:27;;;;;;;8.87;2.83;;;4.30;93.10;;;;;;5070159;28;20229;-78
2022/05/04 00:06:54;;;;;;;8.37;3.53;;;4.20;93.00;;;;;;5079503;28;20241;-79
2022/05/04 00:09:20;;;;;;;10.80;3.27;;;4.20;93.40;;;;;;5077240;28;20619;-79
2022/05/04 00:11:48;;;;;;;5.70;2.43;;;4.20;93.60;;;;;;5071710;28;20226;-79
2022/05/04 00:14:15;;;;;;;6.47;2.43;;;4.10;94.00;;;;;;5075155;28;20237;-77
2022/05/04 00:16:41;;;;;;;6.43;2.53;;;4.10;94.00;;;;;;5080406;28;20232;-78
2022/05/04 00:19:08;;;;;;;6.87;3.00;;;4.10;94.10;;;;;;5076884;28;20237;-77
2022/05/04 00:21:35;;;;;;;10.70;3.67;;;4.10;94.20;;;;;;5080080;28;20282;-78
2022/05/04 00:24:02;;;;;;;7.13;2.97;;;4.00;94.30;;;;;;5082442;28;20222;-78
2022/05/04 00:26:28;;;;;;;7.67;3.73;;;4.00;94.70;;;;;;5076789;28;20238;-78
2022/05/04 00:28:56;;;;;;;7.47;3.70;;;3.90;94.90;;;;;;5076819;28;20396;-79
2022/05/04 00:31:23;;;;;;;8.63;3.70;;;3.90;95.20;;;;;;5074471;28;20399;-78
2022/05/04 00:33:50;;;;;;;10.17;4.23;;;3.80;95.10;;;;;;5083446;28;20224;-79
2022/05/04 00:36:16;;;;;;;9.63;3.87;;;3.80;95.40;;;;;;5075417;28;20403;-79
2022/05/04 00:38:43;;;;;;;10.10;5.17;;;3.80;95.50;;;;;;5082464;28;20237;-78
2022/05/04 00:41:10;;;;;;;7.23;4.00;;;3.80;95.40;;;;;;5074628;28;20725;-79
2022/05/04 00:43:36;;;;;;;9.27;4.33;;;3.70;95.60;;;;;;5072195;28;20282;-79
2022/05/04 00:46:04;;;;;;;8.07;3.93;;;3.70;95.30;;;;;;5078472;28;20278;-78
2022/05/04 00:48:31;;;;;;;12.67;4.57;;;3.60;95.10;;;;;;5077995;28;20221;-79
2022/05/04 00:50:58;;;;;;;7.17;3.80;;;3.60;95.10;;;;;;5080976;28;20232;-77
2022/05/04 00:53:25;;;;;;;9.67;4.00;;;3.60;95.40;;;;;;5074474;28;20237;-77
2022/05/04 00:55:52;;;;;;;7.13;4.30;;;3.50;95.50;;;;;;5071211;28;20222;-76
2022/05/04 01:01:07;;;;;;;10.80;4.30;;;3.50;95.40;;;;;;5075798;28;20674;-76
2022/05/04 01:03:33;;;;;;;7.60;4.20;;;3.40;95.20;;;;;;5076842;28;20810;-76
2022/05/04 01:06:00;;;;;;;13.30;4.60;;;3.40;95.10;;;;;;5076362;28;20228;-75
2022/05/04 01:08:27;;;;;;;13.60;5.00;;;3.30;95.50;;;;;;5073212;28;20228;-74
2022/05/04 01:10:53;;;;;;;9.73;5.60;;;3.30;95.90;;;;;;5069784;28;20271;-76
2022/05/04 01:13:21;;;;;;;11.87;5.13;;;3.20;96.10;;;;;;5073507;28;20230;-75
2022/05/04 01:15:48;;;;;;;9.17;4.13;;;3.20;96.30;;;;;;5075963;28;20234;-76
2022/05/04 01:18:16;;;;;;;8.47;4.47;;;3.20;96.30;;;;;;5070589;28;20227;-76
2022/05/04 01:20:43;;;;;;;9.30;4.00;;;3.20;96.10;;;;;;5072963;28;20231;-76
2022/05/04 01:23:11;;;;;;;8.83;4.43;;;3.10;95.60;;;;;;5079253;28;20291;-76
2022/05/04 01:25:38;;;;;;;10.47;4.07;;;3.10;95.90;;;;;;5077103;28;20317;-76
2022/05/04 01:28:05;;;;;;;7.83;4.43;;;3.10;95.60;;;;;;5076813;28;20227;-76
2022/05/04 01:30:32;;;;;;;9.60;5.10;;;3.00;95.70;;;;;;5068996;28;20399;-76
2022/05/04 01:32:59;;;;;;;9.47;4.57;;;3.00;96.10;;;;;;5076493;28;20276;-77
2022/05/04 01:35:26;;;;;;;13.00;4.83;;;3.00;96.40;;;;;;5082220;28;20323;-76
2022/05/04 01:37:53;;;;;;;8.43;4.53;;;2.90;96.70;;;;;;5072926;28;20219;-77
2022/05/04 01:40:22;;;;;;;8.83;4.53;;;2.90;96.80;;;;;;5068065;28;20231;-76
2022/05/04 01:42:49;;;;;;;12.93;4.70;;;2.90;96.90;;;;;;5068003;28;20229;-76
2022/05/04 01:45:15;;;;;;;10.73;4.70;;;2.90;96.80;;;;;;5072561;28;20226;-77
2022/05/04 01:47:46;;;;;;;8.57;4.60;;;2.90;96.80;;;;;;5069157;28;21935;-76
2022/05/04 01:50:13;;;;;;;9.47;4.60;;;2.80;97.00;;;;;;5069138;28;20245;-77
2022/05/04 01:52:40;;;;;;;9.77;4.37;;;2.80;96.70;;;;;;5079022;28;20226;-75
2022/05/04 01:55:07;;;;;;;8.50;4.73;;;2.80;96.80;;;;;;5076863;28;20224;-77
2022/05/04 01:57:35;;;;;;;11.50;5.07;;;2.80;97.20;;;;;;5073684;28;20227;-78
2022/05/04 02:00:03;;;;;;;9.43;4.97;;;2.70;97.30;;;;;;5077913;28;20222;-76
2022/05/04 02:02:30;;;;;;;6.03;3.57;;;2.70;97.30;;;;;;5078708;28;20233;-75
2022/05/04 02:04:57;;;;;;;10.73;4.03;;;2.70;97.30;;;;;;5077577;28;20326;-76
2022/05/04 02:07:23;;;;;;;8.13;4.17;;;2.70;97.00;;;;;;5080258;28;20229;-76
2022/05/04 02:09:50;;;;;;;7.43;4.33;;;2.70;96.90;;;;;;5076183;28;20671;-76
2022/05/04 02:12:17;;;;;;;12.93;5.10;;;2.70;96.90;;;;;;5075052;28;20242;-76
2022/05/04 02:14:45;;;;;;;11.57;4.67;;;2.70;97.20;;;;;;5076107;28;20246;-75
2022/05/04 02:17:11;;;;;;;10.33;4.87;;;2.60;97.60;;;;;;5078090;28;20233;-76
2022/05/04 02:19:38;;;;;;;12.90;5.47;;;2.60;97.60;;;;;;5071571;28;20254;-75
2022/05/04 02:22:05;;;;;;;11.57;5.13;;;2.60;97.70;;;;;;5070267;28;20663;-76
2022/05/04 02:24:32;;;;;;;9.13;4.50;;;2.60;97.80;;;;;;5078443;28;20230;-77
2022/05/04 02:26:58;;;;;;;11.10;4.73;;;2.60;97.70;;;;;;5077400;28;20305;-77
2022/05/04 02:29:25;;;;;;;12.27;4.63;;;2.60;97.70;;;;;;5072384;28;20234;-77
2022/05/04 02:31:53;;;;;;;10.50;5.17;;;2.50;97.80;;;;;;5075612;28;21467;-76
2022/05/04 02:34:20;;;;;;;11.50;4.90;;;2.50;97.80;;;;;;5077859;28;20750;-77
2022/05/04 02:39:31;;;;;;;11.57;5.33;;;2.50;97.40;;;;;;5071241;28;20291;-76
2022/05/04 02:41:58;;;;;;;8.30;4.80;;;2.50;97.70;;;;;;5071849;28;20222;-76
2022/05/04 02:44:24;;;;;;;12.47;5.00;;;2.50;97.50;;;;;;5076443;28;20232;-76
2022/05/04 02:46:52;;;;;;;9.97;4.67;;;2.40;97.60;;;;;;5076948;28;20313;-76
2022/05/04 02:49:19;;;;;;;13.27;5.60;;;2.40;97.60;;;;;;5072931;28;20738;-77
2022/05/04 02:51:46;;;;;;;9.07;4.00;;;2.40;97.50;;;;;;5076909;28;20245;-77
2022/05/04 02:54:12;;;;;;;12.63;5.10;;;2.40;97.50;;;;;;5077526;28;20237;-77
2022/05/04 02:56:39;;;;;;;10.03;4.43;;;2.40;97.30;;;;;;5081140;28;20230;-77
2022/05/04 02:59:06;;;;;;;14.37;4.97;;;2.30;97.30;;;;;;5077437;28;20236;-76
2022/05/04 03:04:18;;;;;;;9.77;5.10;;;2.30;97.60;;;;;;5072992;28;20237;-76
2022/05/04 03:06:45;;;;;;;9.00;4.17;;;2.30;97.90;;;;;;5075712;28;20233;-76
2022/05/04 03:09:12;;;;;;;8.00;4.37;;;2.30;97.90;;;;;;5066650;28;20310;-75
2022/05/04 03:11:57;;;;;;;10.70;5.33;;;2.20;97.70;;;;;;5091350;28;20241;-76
2022/05/04 03:14:25;;;;;;;10.40;5.67;;;2.20;97.80;;;;;;5077310;28;20237;-76
2022/05/04 03:16:53;;;;;;;11.97;5.53;;;2.20;98.00;;;;;;5073824;28;20236;-76
2022/05/04 03:19:21;;;;;;;10.97;5.40;;;2.20;98.20;;;;;;5077360;28;20316;-76
2022/05/04 03:21:48;;;;;;;10.17;5.50;;;2.20;98.30;;;;;;5072886;28;20233;-76
2022/05/04 03:24:15;;;;;;;13.93;5.57;;;2.20;98.00;;;;;;5076078;28;20226;-76
2022/05/04 03:26:42;;;;;;;13.47;5.33;;;2.20;97.90;;;;;;5081488;28;20223;-76
2022/05/04 03:29:09;;;;;;;8.57;5.03;;;2.10;98.10;;;;;;5075277;28;20225;-76
2022/05/04 03:31:37;;;;;;;11.40;5.60;;;2.20;98.10;;;;;;5074357;28;20232;-76
2022/05/04 03:34:04;;;;;;;13.57;5.53;;;2.10;98.00;;;;;;5078749;28;20242;-76
2022/05/04 03:36:35;;;;;;;9.57;5.40;;;2.10;98.20;;;;;;5080501;28;20477;-76
2022/05/04 03:39:03;;;;;;;13.20;5.47;;;2.20;98.70;;;;;;5075075;28;20226;-76
2022/05/04 03:41:29;;;;;;;11.77;5.80;;;2.20;98.70;;;;;;5066796;28;20270;-75
2022/05/04 03:43:56;;;;;;;10.00;4.50;;;2.20;98.70;;;;;;5076710;28;20226;-76
2022/05/04 03:46:24;;;;;;;10.10;5.23;;;2.20;98.80;;;;;;5080259;28;20598;-76
2022/05/04 03:48:53;;;;;;;11.60;5.70;;;2.30;98.90;;;;;;5072979;28;20231;-75
2022/05/04 03:51:20;;;;;;;12.43;5.27;;;2.30;98.90;;;;;;5071232;28;20258;-76
2022/05/04 03:53:49;;;;;;;7.73;4.90;;;2.30;98.80;;;;;;5069572;28;20225;-76
2022/05/04 03:56:16;;;;;;;10.47;4.77;;;2.30;98.70;;;;;;5078394;28;20226;-76
2022/05/04 03:58:43;;;;;;;10.27;5.27;;;2.40;98.50;;;;;;5075216;28;20231;-76
2022/05/04 04:01:10;;;;;;;9.70;4.80;;;2.30;98.30;;;;;;5076345;28;20227;-77
2022/05/04 04:03:37;;;;;;;13.77;6.10;;;2.30;98.30;;;;;;5077455;28;20249;-77
2022/05/04 04:06:03;;;;;;;9.17;5.67;;;2.30;98.50;;;;;;5079292;28;20229;-77
2022/05/04 04:08:30;;;;;;;10.80;5.53;;;2.40;98.70;;;;;;5073369;28;20256;-77
2022/05/04 04:10:59;;;;;;;9.73;5.30;;;2.40;98.80;;;;;;5076694;28;20314;-77
2022/05/04 04:13:26;;;;;;;12.07;5.93;;;2.40;99.10;;;;;;5078578;28;20277;-76
2022/05/04 04:15:53;;;;;;;11.50;6.17;;;2.50;99.20;;;;;;5075176;28;20634;-76
2022/05/04 04:18:19;;;;;;;11.37;6.40;;;2.60;99.30;;;;;;5081937;28;20235;-76
2022/05/04 04:23:30;;;;;;;10.87;5.57;;;2.80;99.70;;;;;;5041161;28;20397;-75
2022/05/04 04:25:58;;;;;;;11.60;6.10;;;2.90;99.70;;;;;;5076761;28;20231;-76
2022/05/04 04:28:25;;;;;;;11.83;6.13;;;3.00;99.90;;;;;;5076979;28;20327;-76
2022/05/04 04:30:52;;;;;;;13.40;6.27;;;3.10;99.80;;;;;;5076605;28;20234;-77
2022/05/04 04:33:22;;;;;;;10.07;5.23;;;3.20;99.90;;;;;;5081296;28;20878;-77
2022/05/04 04:35:51;;;;;;;11.40;5.50;;;3.30;99.90;;;;;;5081729;28;20394;-75
2022/05/04 04:38:17;;;;;;;14.63;6.33;;;3.40;99.80;;;;;;5079442;28;20362;-76
2022/05/04 04:40:44;;;;;;;10.97;6.30;;;3.50;99.70;;;;;;5071794;28;20243;-76
2022/05/04 04:43:13;;;;;;;12.23;5.93;;;3.50;99.70;;;;;;5078423;28;20309;-75
2022/05/04 04:45:40;;;;;;;11.40;5.90;;;3.60;99.80;;;;;;5080162;28;20316;-75
2022/05/04 04:48:08;;;;;;;14.60;6.47;;;3.70;99.70;;;;;;5079515;28;20224;-76
2022/05/04 04:50:35;;;;;;;11.07;5.83;;;3.80;99.80;;;;;;5081377;28;20287;-75
2022/05/04 04:53:01;;;;;;;15.93;6.90;;;3.80;99.70;;;;;;5082627;28;20221;-76
2022/05/04 04:55:28;;;;;;;13.80;6.00;;;3.90;99.70;;;;;;5076961;28;20228;-76
2022/05/04 04:57:55;;;;;;;14.30;6.23;;;4.00;99.80;;;;;;5079015;28;22174;-76
2022/05/04 05:00:24;;;;;;;12.70;6.23;;;4.10;99.90;;;;;;5078331;28;20725;-75
2022/05/04 05:02:51;;;;;;;11.60;6.07;;;4.20;99.90;;;;;;5080623;28;20230;-75
2022/05/04 05:05:18;;;;;;;12.97;5.83;;;4.30;99.90;;;;;;5078222;28;20227;-76
2022/05/04 05:07:44;;;;;;;13.70;6.47;;;4.40;99.80;;;;;;5076768;28;20225;-76
2022/05/04 05:10:11;;;;;;;17.73;7.60;;;4.50;99.80;;;;;;5078958;28;20222;-75
2022/05/04 05:12:38;;;;;;;10.60;6.20;;;4.60;99.60;;;;;;5082481;28;20241;-75
2022/05/04 05:17:51;;;;;;;10.50;6.30;;;4.70;99.40;;;;;;5079900;28;20760;-76
2022/05/04 05:20:18;;;;;;;14.20;7.10;;;4.80;99.40;;;;;;5076477;28;20237;-76
2022/05/04 05:22:45;;;;;;;15.93;6.67;;;4.80;99.20;;;;;;5076784;28;20745;-75
2022/05/04 05:25:11;;;;;;;11.33;5.40;;;4.90;99.10;;;;;;5081288;28;20639;-74
2022/05/04 05:27:38;;;;;;;15.83;6.57;;;4.90;99.00;;;;;;5077271;28;20260;-75
2022/05/04 05:30:06;;;;;;;14.90;6.43;;;5.00;99.00;;;;;;5091320;28;20576;-75
2022/05/04 05:32:33;;;;;;;16.13;6.27;;;5.10;99.10;;;;;;5079814;28;20699;-76
2022/05/04 05:35:02;;;;;;;10.47;6.70;;;5.10;99.00;;;;;;5071307;28;20262;-75
2022/05/04 05:37:29;;;;;;;15.27;6.00;;;5.10;99.20;;;;;;5073043;28;20232;-76
2022/05/04 05:39:55;;;;;;;11.43;6.00;;;5.20;99.10;;;;;;5078209;28;20472;-76
2022/05/04 05:42:22;;;;;;;12.53;6.40;;;5.20;98.90;;;;;;5077147;28;20231;-76
2022/05/04 05:44:49;;;;;;;11.37;6.03;;;5.30;98.90;;;;;;5075673;28;20324;-75
2022/05/04 05:47:16;;;;;;;13.83;6.60;;;5.30;98.90;;;;;;5079747;28;20308;-74
2022/05/04 05:49:43;;;;;;;11.07;5.57;;;5.40;98.90;;;;;;5075503;28;20646;-76
2022/05/04 05:52:11;;;;;;;9.83;5.53;;;5.50;99.00;;;;;;5081223;28;20241;-76
2022/05/04 05:54:38;;;;;;;11.63;6.10;;;5.50;98.90;;;;;;5078425;28;20226;-76
2022/05/04 05:57:06;;;;;;;11.33;5.10;;;5.60;98.80;;;;;;5081997;28;20287;-76
2022/05/04 05:59:33;;;;;;;11.20;5.47;;;5.70;98.70;;;;;;5079236;28;20245;-75
2022/05/04 06:02:00;;;;;;;12.93;5.60;;;5.80;98.70;;;;;;5074847;28;20277;-75
2022/05/04 06:04:27;;;;;;;11.23;5.87;;;5.90;98.90;;;;;;5081017;28;20236;-75
2022/05/04 06:06:54;;;;;;;9.57;5.10;;;6.10;98.80;;;;;;5081588;28;20338;-76
2022/05/04 06:09:22;;;;;;;11.80;5.47;;;6.20;98.60;;;;;;5079747;28;20269;-76
2022/05/04 06:11:51;;;;;;;11.60;5.40;;;6.40;98.40;;;;;;5081552;28;20237;-76
2022/05/04 06:14:18;;;;;;;10.57;4.80;;;6.50;98.10;;;;;;5082072;28;20266;-75
2022/05/04 06:16:45;;;;;;;11.60;4.83;;;6.60;97.90;;;;;;5080949;28;20535;-76
2022/05/04 06:19:11;;;;;;;8.23;3.73;;;6.80;97.80;;;;;;5082463;28;20765;-76
2022/05/04 06:21:38;;;;;;;7.50;3.20;;;6.90;97.60;;;;;;5078762;28;20219;-74
2022/05/04 06:24:06;;;;;;;9.20;3.40;;;7.10;97.40;;;;;;5078928;28;20226;-76
2022/05/04 06:26:34;;;;;;;7.93;3.67;;;7.30;97.00;;;;;;5082498;28;20515;-76
2022/05/04 06:29:00;;;;;;;6.90;2.90;;;7.50;96.80;;;;;;5080123;28;20862;-76
2022/05/04 06:34:12;;;;;;;6.00;2.53;;;8.00;96.30;;;;;;5075251;28;20257;-76
2022/05/04 06:36:40;;;;;;;6.67;2.30;;;8.30;95.70;;;;;;5077292;28;20259;-76
2022/05/04 06:39:07;;;;;;;6.60;1.83;;;8.50;95.20;;;;;;5079021;28;20228;-75
2022/05/04 06:41:37;;;;;;;6.60;1.83;;;8.80;95.00;;;;;;5077856;28;20230;-76
2022/05/04 06:44:04;;;;;;;5.93;2.13;;;9.00;94.30;;;;;;5079188;28;20230;-76
2022/05/04 06:46:31;;;;;;;6.70;1.63;;;9.30;93.80;;;;;;5075624;28;20593;-76
2022/05/04 06:48:58;;;;;;;4.43;1.80;;;9.50;93.20;;;;;;5075727;28;20250;-75
2022/05/04 06:51:24;;;;;;;5.57;1.60;;;9.70;92.90;;;;;;5077799;28;20242;-76
2022/05/04 06:53:51;;;;;;;5.87;1.93;;;9.90;92.60;;;;;;5081458;28;20233;-75
2022/05/04 06:56:18;;;;;;;5.97;1.50;;;10.10;91.90;;;;;;5073698;28;20238;-75
2022/05/04 06:58:47;;;;;;;3.50;1.60;;;10.20;91.30;;;;;;5074885;28;20261;-75
2022/05/04 07:01:14;;;;;;;7.77;1.67;;;10.20;90.80;;;;;;5074783;28;20690;-76
2022/05/04 07:03:40;;;;;;;3.53;1.50;;;10.20;90.40;;;;;;5076480;28;20237;-76
2022/05/04 07:06:08;;;;;;;5.93;1.30;;;10.30;90.50;;;;;;5081115;28;20238;-76
2022/05/04 07:08:35;;;;;;;4.43;1.70;;;10.30;90.50;;;;;;5077822;28;20238;-76
2022/05/04 07:11:02;;;;;;;5.03;1.40;;;10.60;90.70;;;;;;5078634;28;20235;-76
2022/05/04 07:13:28;;;;;;;5.63;1.67;;;11.00;90.60;;;;;;5074246;28;20258;-76
2022/05/04 07:15:56;;;;;;;4.00;1.30;;;11.50;90.10;;;;;;5073925;28;20572;-76
2022/05/04 07:18:24;;;;;;;4.77;1.60;;;12.10;90.00;;;;;;5079628;28;20230;-76
2022/05/04 07:20:50;;;;;;;5.07;1.50;;;12.70;88.20;;;;;;5081689;28;20224;-76
2022/05/04 07:23:18;;;;;;;4.67;1.60;;;13.30;85.60;;;;;;5077279;28;20230;-76
2022/05/04 07:25:45;;;;;;;3.33;1.40;;;13.90;84.30;;;;;;5076656;28;20704;-76
2022/05/04 07:28:12;;;;;;;4.30;1.70;;;14.50;83.50;;;;;;5071985;28;20234;-76
2022/05/04 07:30:38;;;;;;;6.23;1.90;;;15.20;82.40;;;;;;5078211;28;20418;-76
2022/05/04 07:33:07;;;;;;;2.80;1.40;;;15.80;79.90;;;;;;5076784;28;20238;-76
2022/05/04 07:35:33;;;;;;;5.07;1.67;;;16.40;76.30;;;;;;5077744;28;20253;-76
2022/05/04 07:38:00;;;;;;;5.40;1.60;;;16.90;75.40;;;;;;5081497;28;20222;-77
2022/05/04 07:43:11;;;;;;;7.93;1.73;;;17.60;72.00;;;;;;5074123;28;20262;-76
2022/05/04 07:45:38;;;;;;;6.23;1.63;;;17.90;70.30;;;;;;5076024;28;20224;-76
2022/05/04 07:48:05;;;;;;;5.13;1.75;;;18.20;70.00;;;;;;5074195;28;20231;-76
2022/05/04 07:50:33;;;;;;;4.70;1.53;;;18.40;68.60;;;;;;5081016;28;20688;-77
2022/05/04 07:53:01;;;;;;;6.70;1.80;;;18.60;66.40;;;;;;5076176;28;20254;-76
2022/05/04 07:55:30;;;;;;;5.38;1.73;;;18.80;66.40;;;;;;5079119;28;20297;-76
2022/05/04 07:57:57;;;;;;;7.32;1.67;;;19.00;64.40;;;;;;5080419;28;20438;-77
2022/05/04 08:05:56;;;;;;;5.45;1.77;;;19.80;62.50;;;;;;5078195;28;20245;-76
2022/05/04 08:08:23;;;;;;;4.15;1.85;;;20.00;60.40;;;;;;5080743;28;20279;-76
2022/05/04 08:10:49;;;;;;;4.57;1.50;;;20.20;61.10;;;;;;5081560;28;20222;-75
2022/05/04 08:13:19;;;;;;;4.20;1.70;;;20.30;61.20;;;;;;5084523;28;20279;-76
2022/05/04 08:15:46;;;;;;;8.50;1.70;;;20.50;60.50;;;;;;5081090;28;20310;-76
2022/05/04 08:18:13;;;;;;;5.07;1.60;;;20.80;59.40;;;;;;5097448;28;20776;-77
2022/05/04 08:20:39;;;;;;;4.80;1.88;;;20.80;58.40;;;;;;5085256;28;20246;-76
2022/05/04 08:23:09;;;;;;;6.75;1.98;;;20.70;57.50;;;;;;5078477;28;20227;-76
2022/05/04 08:25:36;;;;;;;5.15;2.00;;;20.60;58.10;;;;;;5081810;28;20234;-76
2022/05/04 08:28:03;;;;;;;6.63;1.90;;;20.50;57.80;;;;;;5081578;28;20241;-76
2022/05/04 08:30:29;;;;;;;4.75;1.83;;;20.40;57.40;;;;;;5081592;28;20383;-75
2022/05/04 08:32:56;;;;;;;10.15;2.10;;;20.20;57.10;;;;;;5075176;28;20222;-77
2022/05/04 08:35:23;;;;;;;5.55;1.98;;;20.00;56.80;;;;;;5077806;28;20594;-76
2022/05/04 08:37:49;;;;;;;5.30;2.00;;;19.90;57.60;;;;;;5072348;28;20845;-77
2022/05/04 08:40:17;;;;;;;4.18;1.92;;;19.80;57.20;;;;;;5077415;28;20230;-76
2022/05/04 08:42:45;;;;;;;6.88;1.85;;;19.90;57.00;;;;;;5081718;28;20218;-77
2022/05/04 08:45:14;;;;;;;5.93;2.03;;;20.00;56.90;;;;;;5079512;28;20230;-77
2022/05/04 08:47:45;;;;;;;5.70;1.98;;;20.10;57.10;;;;;;5078832;28;20314;-75
2022/05/04 08:50:13;;;;;;;3.95;1.75;;;20.40;57.20;;;;;;5080781;28;20451;-77
2022/05/04 08:52:44;;;;;;;4.03;1.70;;;20.70;56.80;;;;;;5074978;28;20235;-76
2022/05/04 08:55:11;;;;;;;6.10;1.70;;;21.00;55.70;;;;;;5073568;28;20234;-75
2022/05/04 08:57:40;;;;;;;4.15;1.77;;;21.30;54.50;;;;;;5076026;28;20235;-77
2022/05/04 09:00:10;;;;;;;5.63;1.85;;;21.20;54.20;;;;;;5077004;28;20310;-76
2022/05/04 09:02:39;;;;;;;4.28;1.90;;;21.10;53.70;;;;;;5077421;28;20297;-77
2022/05/04 09:05:17;;;;;;;4.47;1.85;;;21.00;53.90;;;;;;5078673;28;20254;-77
2022/05/04 09:07:44;;;;;;;5.97;1.80;;;20.90;53.20;;;;;;5077026;28;20230;-77
2022/05/04 09:10:16;;;;;;;5.40;1.70;;;21.00;54.80;;;;;;5078179;28;20219;-76
2022/05/04 09:12:45;;;;;;;5.25;1.98;;;21.30;54.00;;;;;;5075602;28;20219;-77
2022/05/04 09:15:20;;;;;;;5.63;2.10;;;21.60;54.30;;;;;;5072422;28;20233;-76
2022/05/04 09:17:47;;;;;;;6.97;1.90;;;21.90;53.00;;;;;;5074034;28;21037;-77
2022/05/04 09:22:57;;;;;;;4.28;1.60;;;22.00;52.60;;;;;;5072055;28;20313;-76
2022/05/04 09:25:25;;;;;;;6.85;2.00;;;21.80;52.30;;;;;;5077354;28;20218;-77
2022/05/04 09:27:53;;;;;;;5.13;1.92;;;21.50;52.60;;;;;;5077835;28;20219;-77
2022/05/04 09:30:25;;;;;;;6.57;1.92;;;21.20;51.90;;;;;;5071789;28;20253;-77
2022/05/04 09:32:52;;;;;;;6.60;1.60;;;21.00;52.10;;;;;;5079736;28;20687;-75
2022/05/04 09:35:19;;;;;;;7.40;2.20;;;20.90;52.50;;;;;;5075432;28;20223;-77
2022/05/04 09:46:08;;;;;;;6.03;2.10;;;21.30;52.90;;;;;;5076640;28;20263;-76
2022/05/04 09:48:36;;;;;;;5.05;2.03;;;21.40;52.10;;;;;;5071848;28;20484;-76
2022/05/04 09:51:05;;;;;;;4.45;1.70;;;21.50;51.70;;;;;;5076906;28;20261;-77
2022/05/04 09:53:32;;;;;;;5.90;1.88;;;21.50;51.60;;;;;;5078347;28;20242;-75
2022/05/04 09:56:00;;;;;;;7.82;1.90;;;21.40;51.20;;;;;;5076604;28;20626;-77
2022/05/04 09:58:29;;;;;;;5.93;2.33;;;21.20;51.10;;;;;;5073750;28;20261;-77
2022/05/04 10:00:59;;;;;;;7.72;2.60;;;21.00;50.70;;;;;;5073524;28;20683;-76
2022/05/04 10:03:26;;;;;;;5.03;1.95;;;20.60;50.50;;;;;;5073655;28;20258;-76
2022/05/04 10:05:55;;;;;;;3.95;1.77;;;20.10;50.80;;;;;;5080625;28;20345;-77
2022/05/04 10:08:22;;;;;;;6.25;2.17;;;19.70;51.30;;;;;;5073097;28;20280;-77
2022/05/04 10:10:50;;;;;;;7.30;1.90;;;19.40;52.00;;;;;;5076036;28;20287;-77
2022/05/04 10:13:19;;;;;;;4.10;2.17;;;19.10;52.60;;;;;;5072002;28;20228;-77
2022/05/04 10:15:51;;;;;;;5.30;2.25;;;19.00;52.60;;;;;;5073923;28;20718;-77
2022/05/04 10:18:21;;;;;;;5.77;2.10;;;18.90;52.90;;;;;;5072337;28;20227;-76
2022/05/04 10:20:55;;;;;;;5.95;2.15;;;18.90;53.40;;;;;;5075435;28;20570;-77
2022/05/04 10:23:25;;;;;;;6.93;2.25;;;19.00;53.30;;;;;;5076998;28;20660;-76
2022/05/04 10:25:52;;;;;;;8.18;2.60;;;19.10;53.30;;;;;;5074010;28;20320;-76
2022/05/04 10:28:19;;;;;;;7.25;2.38;;;19.30;53.10;;;;;;5079607;28;20274;-77
2022/05/04 10:30:55;;;;;;;7.60;2.22;;;19.40;53.20;;;;;;5077394;28;20353;-76
2022/05/04 10:33:25;;;;;;;6.18;2.45;;;19.60;52.90;;;;;;5079408;28;20234;-76
2022/05/04 10:35:52;;;;;;;8.07;2.58;;;19.80;53.10;;;;;;5078623;28;20229;-76
2022/05/04 10:38:29;;;;;;;6.35;2.40;;;20.10;53.20;;;;;;5074920;28;20754;-77
2022/05/04 10:40:58;;;;;;;5.80;2.45;;;20.40;53.00;;;;;;5072971;28;20660;-76
2022/05/04 10:43:35;;;;;;;6.38;2.50;;;20.80;52.50;;;;;;5074953;28;20267;-76
2022/05/04 10:46:09;;;;;;;5.10;2.08;;;21.20;51.60;;;;;;5082364;28;20219;-77
2022/05/04 10:48:36;;;;;;;6.97;2.70;;;21.50;50.40;;;;;;5078287;28;20695;-77
2022/05/04 10:51:05;;;;;;;6.18;2.45;;;21.90;51.30;;;;;;5078876;28;20802;-76
2022/05/04 10:53:37;;;;;;;5.57;2.13;;;22.20;50.80;;;;;;5077538;28;20227;-77
2022/05/04 10:56:07;;;;;;;7.03;2.55;;;22.50;50.60;;;;;;5080255;28;20227;-77
2022/05/04 10:58:36;;;;;;;6.18;2.35;;;22.80;50.50;;;;;;5078284;28;20227;-77
2022/05/04 11:01:04;;;;;;;6.28;2.28;;;23.10;49.60;;;;;;5074394;28;20228;-77
2022/05/04 11:03:35;;;;;;;5.68;2.38;;;23.30;48.80;;;;;;5080157;28;20246;-77
2022/05/04 11:06:05;;;;;;;4.63;2.42;;;23.50;48.10;;;;;;5079335;28;20211;-77
2022/05/04 11:08:36;;;;;;;6.13;3.17;;;23.60;48.00;;;;;;5081092;28;20226;-77
2022/05/04 11:11:04;;;;;;;5.40;2.65;;;23.60;47.80;;;;;;5071105;28;20230;-77
2022/05/04 11:13:31;;;;;;;8.75;2.70;;;23.50;47.90;;;;;;5080450;28;20268;-77
2022/05/04 11:16:01;;;;;;;5.05;2.50;;;23.50;47.90;;;;;;5072294;28;20219;-77
2022/05/04 11:18:28;;;;;;;5.55;2.28;;;23.40;47.30;;;;;;5076935;28;20302;-77
2022/05/04 11:20:56;;;;;;;4.18;2.22;;;23.30;47.40;;;;;;5075072;28;20230;-77
2022/05/04 11:23:24;;;;;;;7.00;2.22;;;23.10;47.20;;;;;;5077986;28;20288;-77
2022/05/04 11:25:51;;;;;;;5.32;2.13;;;22.90;47.50;;;;;;5082258;28;20257;-77
2022/05/04 11:28:20;;;;;;;3.70;2.22;;;22.70;47.70;;;;;;5079928;28;20223;-77
2022/05/04 11:30:47;;;;;;;4.18;2.20;;;22.50;47.30;;;;;;5074841;28;20335;-77
2022/05/04 11:33:14;;;;;;;6.75;3.03;;;22.20;47.50;;;;;;5080104;28;20218;-77
2022/05/04 11:35:43;;;;;;;5.38;2.50;;;21.90;47.10;;;;;;5081781;28;20234;-77
2022/05/04 11:38:22;;;;;;;6.22;2.83;;;21.50;47.40;;;;;;5081869;28;20230;-76
2022/05/04 11:40:50;;;;;;;4.43;2.25;;;21.20;47.30;;;;;;5085058;28;20222;-77
2022/05/04 11:43:25;;;;;;;5.40;2.53;;;20.80;48.10;;;;;;5083873;28;20317;-77
2022/05/04 11:45:53;;;;;;;5.97;2.47;;;20.60;48.40;;;;;;5084781;28;20488;-77
2022/05/04 11:48:19;;;;;;;5.88;2.55;;;20.40;49.10;;;;;;5077984;28;20260;-78
2022/05/04 11:50:46;;;;;;;5.32;2.42;;;20.30;49.30;;;;;;5081880;28;20688;-77
2022/05/04 11:53:14;;;;;;;4.70;2.45;;;20.20;49.30;;;;;;5082402;28;20230;-77
2022/05/04 11:55:42;;;;;;;7.40;2.47;;;20.10;49.50;;;;;;5078687;28;20806;-77
2022/05/04 11:58:10;;;;;;;5.22;2.67;;;20.00;49.70;;;;;;5073728;28;20222;-77
2022/05/04 12:00:37;;;;;;;6.53;3.25;;;20.00;49.70;;;;;;5079732;28;20296;-77
2022/05/04 12:03:05;;;;;;;5.72;2.67;;;19.90;50.00;;;;;;5076932;28;20230;-77
2022/05/04 12:05:33;;;;;;;7.03;2.63;;;19.80;49.90;;;;;;5082689;28;20763;-77
2022/05/04 12:08:00;;;;;;;6.85;2.72;;;19.90;50.60;;;;;;5077613;28;20226;-77
2022/05/04 12:10:27;;;;;;;6.30;2.78;;;19.90;50.60;;;;;;5082006;28;20497;-77
2022/05/04 12:12:55;;;;;;;7.15;2.40;;;20.00;50.50;;;;;;5076314;28;20223;-77
2022/05/04 12:15:23;;;;;;;4.82;2.78;;;20.10;50.30;;;;;;5075208;28;20225;-77
2022/05/04 12:17:50;;;;;;;5.47;2.92;;;20.20;50.00;;;;;;5083653;28;20646;-77
2022/05/04 12:20:19;;;;;;;6.75;2.45;;;20.40;49.90;;;;;;5083495;28;20350;-78
2022/05/04 12:22:46;;;;;;;7.55;2.50;;;20.50;50.00;;;;;;5081268;28;20243;-77
2022/05/04 12:25:13;;;;;;;7.22;2.50;;;20.70;49.90;;;;;;5080891;28;20234;-77
2022/05/04 12:27:40;;;;;;;4.75;2.33;;;20.80;49.70;;;;;;5084537;28;20239;-76
2022/05/04 12:33:12;;;;;;;4.60;2.30;;;21.10;49.20;;;;;;5080883;28;20229;-77
2022/05/04 12:35:42;;;;;;;5.95;2.60;;;21.20;48.50;;;;;;5086734;28;20226;-75
2022/05/04 12:38:09;;;;;;;6.63;3.10;;;21.20;48.60;;;;;;5084794;28;20222;-77
2022/05/04 12:40:37;;;;;;;7.68;2.55;;;21.20;48.70;;;;;;5086601;28;20227;-78
2022/05/04 12:43:05;;;;;;;4.97;2.30;;;21.20;48.60;;;;;;5091628;28;20237;-77
2022/05/04 12:45:34;;;;;;;6.55;2.90;;;21.20;48.70;;;;;;5080879;28;20605;-76
2022/05/04 12:48:02;;;;;;;5.90;2.47;;;21.30;48.60;;;;;;5084993;28;20218;-78
2022/05/04 12:50:29;;;;;;;7.30;3.05;;;21.40;48.60;;;;;;5081872;28;20707;-76
2022/05/04 12:52:57;;;;;;;7.93;2.83;;;21.40;48.00;;;;;;5080886;28;20276;-77
2022/05/04 12:56:45;;;;;;;4.95;2.30;;;21.50;48.10;;;;;;5081449;28;20325;-77
2022/05/04 12:58:13;;;;;;;5.88;2.88;;;21.50;48.20;;;;;;5080110;28;20333;-77
2022/05/04 13:00:41;;;;;;;6.05;3.05;;;21.50;47.90;;;;;;5080658;28;20467;-77
2022/05/04 13:03:12;;;;;;;6.30;2.90;;;21.40;47.60;;;;;;5081126;28;20618;-77
2022/05/04 13:05:39;;;;;;;6.75;3.22;;;21.30;47.80;;;;;;5083904;28;20227;-78
2022/05/04 13:08:07;;;;;;;5.30;2.92;;;21.20;48.00;;;;;;5077715;28;20226;-77
2022/05/04 13:10:34;;;;;;;5.50;2.80;;;21.20;47.90;;;;;;5080213;28;20227;-77
2022/05/04 13:13:00;;;;;;;6.15;2.95;;;21.00;47.70;;;;;;5082429;28;20305;-77
2022/05/04 13:15:28;;;;;;;4.85;2.83;;;20.80;47.60;;;;;;5083968;28;20309;-77
2022/05/04 13:17:56;;;;;;;7.22;3.22;;;20.80;47.70;;;;;;5086979;28;20291;-77
2022/05/04 13:20:23;;;;;;;6.95;3.13;;;20.60;48.00;;;;;;5081208;28;20564;-77
2022/05/04 13:22:49;;;;;;;7.15;2.95;;;20.60;48.50;;;;;;5083296;28;20244;-78
2022/05/04 13:25:17;;;;;;;5.00;2.85;;;20.60;48.50;;;;;;5080858;28;20226;-77
2022/05/04 13:27:44;;;;;;;6.72;2.75;;;20.70;48.50;;;;;;5083852;28;20223;-78
2022/05/04 13:30:11;;;;;;;6.35;2.50;;;20.70;48.20;;;;;;5082082;28;20211;-78